CDT,Max TemperatureF,Mean TemperatureF,Min TemperatureF,Max Dew PointF,MeanDew PointF,Min DewpointF,Max Humidity, Mean Humidity, Min Humidity, Max Sea Level PressureIn, Mean Sea Level PressureIn, Min Sea Level PressureIn, Max VisibilityMiles, Mean VisibilityMiles, Min VisibilityMiles, Max Wind SpeedMPH, Mean Wind SpeedMPH, Max Gust SpeedMPH,PrecipitationIn, CloudCover, Events, WindDirDegrees
2013-10-1,81,64,46,56,52,47,99,72,37,29.96,29.91,29.79,10,8,1,9,3,,0.00,0,,28
2013-10-2,86,68,50,66,58,50,100,80,44,29.98,29.91,29.82,10,10,7,16,4,23,0.00,1,,132
2013-10-3,83,68,53,70,62,48,100,83,55,29.88,29.79,29.70,10,8,0,40,11,52,1.99,4,Fog-Rain-Thunderstorm,281
2013-10-4,82,70,54,72,63,39,100,89,55,29.90,29.76,29.63,10,8,1,25,12,39,1.46,6,Rain-Thunderstorm,73
2013-10-5,54,48,42,41,35,32,82,62,46,29.95,29.89,29.81,10,10,10,21,13,31,0.00,5,Rain,246
2013-10-6,50,46,41,48,43,37,100,90,81,30.03,29.85,29.77,10,9,4,21,13,29,0.06,6,Rain,289
2013-10-7,74,55,36,46,41,36,99,68,27,30.11,30.05,30.00,10,10,10,15,6,21,0.00,0,,227
2013-10-8,77,60,42,47,44,39,91,59,26,30.04,29.98,29.92,10,10,10,23,8,31,0.00,0,,144
2013-10-9,77,64,52,52,49,47,85,63,40,30.03,29.99,29.94,10,10,10,18,11,24,0.00,0,,130
2013-10-10,80,66,52,56,52,48,86,65,39,30.01,29.92,29.81,10,10,10,21,11,32,0.00,0,,129
2013-10-11,79,68,52,59,51,38,82,65,24,29.91,29.73,29.64,10,10,10,25,15,36,0.00,2,Rain,155
2013-10-12,66,52,37,42,38,32,95,65,29,30.30,30.13,29.92,10,10,10,15,5,21,0.00,0,,290
2013-10-13,69,52,34,42,36,34,99,63,29,30.45,30.37,30.30,10,10,6,12,4,,0.00,0,,99
2013-10-14,64,54,47,59,50,33,100,83,47,30.30,29.92,29.75,10,7,1,28,15,37,1.45,7,Rain-Thunderstorm,132
2013-10-15,54,52,46,52,41,37,88,73,63,30.09,29.96,29.80,10,10,10,24,14,31,0.00,7,,277
2013-10-16,56,46,35,40,37,30,100,74,36,30.09,30.04,29.97,10,10,5,15,10,,0.00,4,,305
2013-10-17,62,46,31,42,38,31,99,75,44,30.07,29.97,29.91,10,10,10,18,6,26,0.00,3,,302
2013-10-18,50,42,33,38,32,28,94,72,43,30.17,30.09,30.04,10,10,10,13,7,,0.00,1,,287
2013-10-19,63,46,30,38,33,28,99,71,36,30.03,29.91,29.84,10,10,10,20,5,29,0.00,1,,245
2013-10-20,65,52,39,43,39,34,99,69,39,30.04,29.83,29.73,10,10,10,17,6,23,0.00,3,,320
2013-10-21,53,42,30,40,34,29,96,77,49,30.15,30.07,29.97,10,10,10,10,5,,0.00,3,,280
2013-10-22,49,42,36,42,37,31,100,79,65,30.14,29.99,29.86,10,10,10,17,6,23,0.00,6,,317
2013-10-23,46,38,31,39,36,30,99,87,69,30.24,30.15,30.09,10,10,10,9,5,,0.01,6,Rain,323
2013-10-24,49,37,25,33,28,25,96,72,39,30.44,30.38,30.25,10,10,9,13,8,20,0.00,1,,304
2013-10-25,59,40,21,32,27,20,100,71,35,30.45,30.32,30.09,10,10,4,15,4,24,0.00,0,,149
2013-10-26,52,40,27,35,31,27,98,70,43,30.25,30.17,30.04,10,10,10,15,6,18,0.00,0,,311
2013-10-27,69,46,22,36,30,22,99,67,29,30.17,29.99,29.86,10,10,10,15,5,22,0.00,0,,137
2013-10-28,55,45,35,39,36,33,93,69,49,30.21,30.15,29.98,10,10,7,14,8,23,0.00,2,Rain,52
2013-10-29,54,48,42,55,47,37,100,96,73,30.19,30.05,29.94,10,5,2,13,8,20,0.25,8,Rain,70
2013-10-30,59,52,43,59,52,44,100,100,99,29.96,29.87,29.76,10,4,0,15,5,30,0.32,8,Fog-Rain-Thunderstorm,318
2013-10-31,57,46,35,48,40,36,100,91,56,29.77,29.65,29.52,10,10,8,15,5,,0.00,1,,295